sensor_id;sensor_type;location;lat;lon;timestamp;P1;durP1;ratioP1;P2;durP2;ratioP2
76900;SDS011;65859;43.020;25.096;2024-01-27T00:00:29;32.72;;;16.60;;
76900;SDS011;65859;43.020;25.096;2024-01-27T00:03:14;29.10;;;13.88;;
76900;SDS011;65859;43.020;25.096;2024-01-27T00:05:59;35.00;;;14.88;;
76900;SDS011;65859;43.020;25.096;2024-01-27T00:08:44;30.77;;;10.82;;
76900;SDS011;65859;43.020;25.096;2024-01-27T00:11:29;36.95;;;15.10;;
76900;SDS011;65859;43.020;25.096;2024-01-27T00:14:13;25.25;;;10.63;;
76900;SDS011;65859;43.020;25.096;2024-01-27T00:16:58;16.83;;;7.82;;
76900;SDS011;65859;43.020;25.096;2024-01-27T00:19:43;13.68;;;5.40;;
76900;SDS011;65859;43.020;25.096;2024-01-27T00:22:28;19.58;;;8.52;;
76900;SDS011;65859;43.020;25.096;2024-01-27T00:25:14;21.10;;;9.32;;
76900;SDS011;65859;43.020;25.096;2024-01-27T00:27:59;28.40;;;10.05;;
76900;SDS011;65859;43.020;25.096;2024-01-27T00:30:44;19.38;;;8.48;;
76900;SDS011;65859;43.020;25.096;2024-01-27T00:33:28;17.80;;;6.80;;
76900;SDS011;65859;43.020;25.096;2024-01-27T00:36:13;14.13;;;7.68;;
76900;SDS011;65859;43.020;25.096;2024-01-27T00:38:58;14.38;;;7.00;;
76900;SDS011;65859;43.020;25.096;2024-01-27T00:41:43;82.50;;;27.95;;
76900;SDS011;65859;43.020;25.096;2024-01-27T00:44:28;58.53;;;20.27;;
76900;SDS011;65859;43.020;25.096;2024-01-27T00:47:13;11.18;;;4.75;;
76900;SDS011;65859;43.020;25.096;2024-01-27T00:49:57;9.73;;;4.55;;
76900;SDS011;65859;43.020;25.096;2024-01-27T00:52:42;5.88;;;2.70;;
76900;SDS011;65859;43.020;25.096;2024-01-27T00:55:28;11.50;;;5.95;;
76900;SDS011;65859;43.020;25.096;2024-01-27T00:58:13;10.05;;;4.85;;
76900;SDS011;65859;43.020;25.096;2024-01-27T01:00:58;19.83;;;7.40;;
76900;SDS011;65859;43.020;25.096;2024-01-27T01:03:43;10.88;;;5.13;;
76900;SDS011;65859;43.020;25.096;2024-01-27T01:06:28;19.85;;;7.75;;
76900;SDS011;65859;43.020;25.096;2024-01-27T01:09:13;16.42;;;7.03;;
76900;SDS011;65859;43.020;25.096;2024-01-27T01:11:58;10.27;;;4.35;;
76900;SDS011;65859;43.020;25.096;2024-01-27T01:14:43;17.88;;;6.55;;
76900;SDS011;65859;43.020;25.096;2024-01-27T01:17:27;19.92;;;8.55;;
76900;SDS011;65859;43.020;25.096;2024-01-27T01:20:12;27.27;;;13.02;;
76900;SDS011;65859;43.020;25.096;2024-01-27T01:22:57;29.55;;;12.75;;
76900;SDS011;65859;43.020;25.096;2024-01-27T01:25:43;24.45;;;9.57;;
76900;SDS011;65859;43.020;25.096;2024-01-27T01:28:28;21.23;;;10.20;;
76900;SDS011;65859;43.020;25.096;2024-01-27T01:31:13;24.83;;;10.45;;
76900;SDS011;65859;43.020;25.096;2024-01-27T01:33:58;21.60;;;9.40;;
76900;SDS011;65859;43.020;25.096;2024-01-27T01:36:43;21.17;;;10.32;;
76900;SDS011;65859;43.020;25.096;2024-01-27T01:39:32;17.08;;;7.93;;
76900;SDS011;65859;43.020;25.096;2024-01-27T01:42:16;22.83;;;9.88;;
76900;SDS011;65859;43.020;25.096;2024-01-27T01:45:01;19.90;;;8.70;;
76900;SDS011;65859;43.020;25.096;2024-01-27T01:47:46;19.67;;;7.97;;
76900;SDS011;65859;43.020;25.096;2024-01-27T01:50:32;31.08;;;14.15;;
76900;SDS011;65859;43.020;25.096;2024-01-27T01:53:17;12.77;;;6.65;;
76900;SDS011;65859;43.020;25.096;2024-01-27T01:56:04;12.38;;;4.90;;
76900;SDS011;65859;43.020;25.096;2024-01-27T01:58:53;8.85;;;5.00;;
76900;SDS011;65859;43.020;25.096;2024-01-27T02:01:38;19.20;;;8.23;;
76900;SDS011;65859;43.020;25.096;2024-01-27T02:04:23;15.60;;;6.50;;
76900;SDS011;65859;43.020;25.096;2024-01-27T02:07:07;13.43;;;6.38;;
76900;SDS011;65859;43.020;25.096;2024-01-27T02:09:53;16.17;;;8.85;;
76900;SDS011;65859;43.020;25.096;2024-01-27T02:12:37;17.83;;;9.90;;
76900;SDS011;65859;43.020;25.096;2024-01-27T02:15:22;19.13;;;9.90;;
76900;SDS011;65859;43.020;25.096;2024-01-27T02:18:07;17.98;;;10.45;;
76900;SDS011;65859;43.020;25.096;2024-01-27T02:20:52;20.63;;;9.88;;
76900;SDS011;65859;43.020;25.096;2024-01-27T02:23:36;14.05;;;7.70;;
76900;SDS011;65859;43.020;25.096;2024-01-27T02:26:23;9.02;;;4.60;;
76900;SDS011;65859;43.020;25.096;2024-01-27T02:29:08;12.32;;;5.95;;
76900;SDS011;65859;43.020;25.096;2024-01-27T02:31:53;8.85;;;4.22;;
76900;SDS011;65859;43.020;25.096;2024-01-27T02:34:38;9.57;;;4.57;;
76900;SDS011;65859;43.020;25.096;2024-01-27T02:37:23;10.25;;;4.85;;
76900;SDS011;65859;43.020;25.096;2024-01-27T02:40:08;14.02;;;5.13;;
76900;SDS011;65859;43.020;25.096;2024-01-27T02:42:53;9.40;;;4.15;;
76900;SDS011;65859;43.020;25.096;2024-01-27T02:45:38;8.70;;;4.10;;
76900;SDS011;65859;43.020;25.096;2024-01-27T02:48:23;12.55;;;5.75;;
76900;SDS011;65859;43.020;25.096;2024-01-27T02:51:07;11.32;;;6.30;;
76900;SDS011;65859;43.020;25.096;2024-01-27T02:53:53;8.50;;;4.60;;
76900;SDS011;65859;43.020;25.096;2024-01-27T02:56:39;11.43;;;5.68;;
76900;SDS011;65859;43.020;25.096;2024-01-27T02:59:24;11.40;;;4.65;;
76900;SDS011;65859;43.020;25.096;2024-01-27T03:02:08;11.15;;;5.63;;
76900;SDS011;65859;43.020;25.096;2024-01-27T03:04:53;9.98;;;4.63;;
76900;SDS011;65859;43.020;25.096;2024-01-27T03:07:38;8.55;;;4.45;;
76900;SDS011;65859;43.020;25.096;2024-01-27T03:10:22;7.65;;;4.28;;
76900;SDS011;65859;43.020;25.096;2024-01-27T03:13:07;7.15;;;4.70;;
76900;SDS011;65859;43.020;25.096;2024-01-27T03:15:52;10.18;;;4.72;;
76900;SDS011;65859;43.020;25.096;2024-01-27T03:18:37;12.18;;;6.65;;
76900;SDS011;65859;43.020;25.096;2024-01-27T03:21:22;9.82;;;5.30;;
76900;SDS011;65859;43.020;25.096;2024-01-27T03:24:07;14.20;;;6.53;;
76900;SDS011;65859;43.020;25.096;2024-01-27T03:26:53;11.82;;;5.68;;
76900;SDS011;65859;43.020;25.096;2024-01-27T03:29:38;10.10;;;4.85;;
76900;SDS011;65859;43.020;25.096;2024-01-27T03:32:22;11.40;;;5.10;;
76900;SDS011;65859;43.020;25.096;2024-01-27T03:35:07;9.10;;;3.92;;
76900;SDS011;65859;43.020;25.096;2024-01-27T03:37:52;12.60;;;5.13;;
76900;SDS011;65859;43.020;25.096;2024-01-27T03:40:36;10.52;;;4.60;;
76900;SDS011;65859;43.020;25.096;2024-01-27T03:43:21;9.05;;;4.93;;
76900;SDS011;65859;43.020;25.096;2024-01-27T03:46:06;8.25;;;4.32;;
76900;SDS011;65859;43.020;25.096;2024-01-27T03:48:51;11.02;;;6.72;;
76900;SDS011;65859;43.020;25.096;2024-01-27T03:51:36;11.38;;;5.50;;
76900;SDS011;65859;43.020;25.096;2024-01-27T03:54:21;9.27;;;5.78;;
76900;SDS011;65859;43.020;25.096;2024-01-27T03:57:07;11.35;;;5.30;;
76900;SDS011;65859;43.020;25.096;2024-01-27T03:59:52;9.48;;;4.75;;
76900;SDS011;65859;43.020;25.096;2024-01-27T04:02:36;8.77;;;4.45;;
76900;SDS011;65859;43.020;25.096;2024-01-27T04:05:22;10.27;;;5.53;;
76900;SDS011;65859;43.020;25.096;2024-01-27T04:08:07;10.07;;;4.57;;
76900;SDS011;65859;43.020;25.096;2024-01-27T04:10:51;11.18;;;6.10;;
76900;SDS011;65859;43.020;25.096;2024-01-27T04:13:36;9.23;;;5.22;;
76900;SDS011;65859;43.020;25.096;2024-01-27T04:16:21;24.38;;;13.90;;
76900;SDS011;65859;43.020;25.096;2024-01-27T04:19:06;11.90;;;7.63;;
76900;SDS011;65859;43.020;25.096;2024-01-27T04:21:50;14.23;;;6.63;;
76900;SDS011;65859;43.020;25.096;2024-01-27T04:24:36;16.70;;;6.57;;
76900;SDS011;65859;43.020;25.096;2024-01-27T04:27:22;22.90;;;10.98;;
76900;SDS011;65859;43.020;25.096;2024-01-27T04:30:07;12.05;;;6.53;;
76900;SDS011;65859;43.020;25.096;2024-01-27T04:32:52;9.23;;;4.65;;
76900;SDS011;65859;43.020;25.096;2024-01-27T04:35:37;9.75;;;4.25;;
76900;SDS011;65859;43.020;25.096;2024-01-27T04:38:21;13.38;;;7.00;;
76900;SDS011;65859;43.020;25.096;2024-01-27T04:41:07;13.10;;;5.97;;
76900;SDS011;65859;43.020;25.096;2024-01-27T04:43:52;10.02;;;5.68;;
76900;SDS011;65859;43.020;25.096;2024-01-27T04:46:39;14.50;;;5.55;;
76900;SDS011;65859;43.020;25.096;2024-01-27T04:49:23;11.85;;;6.53;;
76900;SDS011;65859;43.020;25.096;2024-01-27T04:52:09;11.80;;;6.07;;
76900;SDS011;65859;43.020;25.096;2024-01-27T04:54:53;11.98;;;5.97;;
76900;SDS011;65859;43.020;25.096;2024-01-27T04:57:40;8.80;;;4.88;;
76900;SDS011;65859;43.020;25.096;2024-01-27T05:00:25;15.05;;;7.38;;
76900;SDS011;65859;43.020;25.096;2024-01-27T05:03:11;13.82;;;7.00;;
76900;SDS011;65859;43.020;25.096;2024-01-27T05:05:57;7.70;;;4.68;;
76900;SDS011;65859;43.020;25.096;2024-01-27T05:08:42;10.68;;;6.70;;
76900;SDS011;65859;43.020;25.096;2024-01-27T05:11:30;14.65;;;8.02;;
76900;SDS011;65859;43.020;25.096;2024-01-27T05:14:16;20.00;;;10.52;;
76900;SDS011;65859;43.020;25.096;2024-01-27T05:17:01;9.88;;;6.05;;
76900;SDS011;65859;43.020;25.096;2024-01-27T05:19:46;16.90;;;7.78;;
76900;SDS011;65859;43.020;25.096;2024-01-27T05:22:33;8.48;;;5.10;;
76900;SDS011;65859;43.020;25.096;2024-01-27T05:25:17;10.02;;;5.38;;
76900;SDS011;65859;43.020;25.096;2024-01-27T05:28:04;11.00;;;5.38;;
76900;SDS011;65859;43.020;25.096;2024-01-27T05:30:49;11.88;;;6.50;;
76900;SDS011;65859;43.020;25.096;2024-01-27T05:33:33;10.43;;;6.85;;
76900;SDS011;65859;43.020;25.096;2024-01-27T05:36:22;11.43;;;5.80;;
76900;SDS011;65859;43.020;25.096;2024-01-27T05:39:06;59.63;;;26.38;;
76900;SDS011;65859;43.020;25.096;2024-01-27T05:41:52;25.65;;;12.73;;
76900;SDS011;65859;43.020;25.096;2024-01-27T05:44:36;34.25;;;16.52;;
76900;SDS011;65859;43.020;25.096;2024-01-27T05:47:22;25.33;;;12.50;;
76900;SDS011;65859;43.020;25.096;2024-01-27T05:50:06;12.20;;;5.30;;
76900;SDS011;65859;43.020;25.096;2024-01-27T05:52:52;16.20;;;6.43;;
76900;SDS011;65859;43.020;25.096;2024-01-27T05:55:36;18.88;;;10.45;;
76900;SDS011;65859;43.020;25.096;2024-01-27T05:58:23;19.45;;;9.95;;
76900;SDS011;65859;43.020;25.096;2024-01-27T06:01:07;21.63;;;9.80;;
76900;SDS011;65859;43.020;25.096;2024-01-27T06:03:53;25.65;;;14.20;;
76900;SDS011;65859;43.020;25.096;2024-01-27T06:06:38;30.40;;;12.57;;
76900;SDS011;65859;43.020;25.096;2024-01-27T06:09:23;20.98;;;10.82;;
76900;SDS011;65859;43.020;25.096;2024-01-27T06:12:08;23.35;;;10.75;;
76900;SDS011;65859;43.020;25.096;2024-01-27T06:14:52;68.93;;;29.20;;
76900;SDS011;65859;43.020;25.096;2024-01-27T06:17:37;40.55;;;19.25;;
76900;SDS011;65859;43.020;25.096;2024-01-27T06:20:22;51.78;;;24.13;;
76900;SDS011;65859;43.020;25.096;2024-01-27T06:23:07;45.00;;;24.33;;
76900;SDS011;65859;43.020;25.096;2024-01-27T06:25:52;19.92;;;10.82;;
76900;SDS011;65859;43.020;25.096;2024-01-27T06:28:38;26.65;;;14.68;;
76900;SDS011;65859;43.020;25.096;2024-01-27T06:31:23;7.05;;;3.03;;
76900;SDS011;65859;43.020;25.096;2024-01-27T06:34:08;4.90;;;2.30;;
76900;SDS011;65859;43.020;25.096;2024-01-27T06:36:53;3.03;;;1.52;;
76900;SDS011;65859;43.020;25.096;2024-01-27T06:39:38;4.70;;;2.50;;
76900;SDS011;65859;43.020;25.096;2024-01-27T06:42:23;5.15;;;2.50;;
76900;SDS011;65859;43.020;25.096;2024-01-27T06:45:08;14.07;;;5.13;;
76900;SDS011;65859;43.020;25.096;2024-01-27T06:47:53;15.60;;;7.50;;
76900;SDS011;65859;43.020;25.096;2024-01-27T06:50:38;17.15;;;6.43;;
76900;SDS011;65859;43.020;25.096;2024-01-27T06:53:23;14.85;;;5.70;;
76900;SDS011;65859;43.020;25.096;2024-01-27T06:56:08;8.75;;;4.65;;
76900;SDS011;65859;43.020;25.096;2024-01-27T06:58:54;22.90;;;10.23;;
76900;SDS011;65859;43.020;25.096;2024-01-27T07:01:44;10.75;;;5.95;;
76900;SDS011;65859;43.020;25.096;2024-01-27T07:04:32;8.40;;;4.75;;
76900;SDS011;65859;43.020;25.096;2024-01-27T07:07:17;7.25;;;5.00;;
76900;SDS011;65859;43.020;25.096;2024-01-27T07:10:04;8.27;;;5.20;;
76900;SDS011;65859;43.020;25.096;2024-01-27T07:12:51;12.60;;;7.97;;
76900;SDS011;65859;43.020;25.096;2024-01-27T07:15:36;15.07;;;8.98;;
76900;SDS011;65859;43.020;25.096;2024-01-27T07:18:21;8.82;;;5.28;;
76900;SDS011;65859;43.020;25.096;2024-01-27T07:21:06;20.77;;;10.13;;
76900;SDS011;65859;43.020;25.096;2024-01-27T07:23:51;20.58;;;10.85;;
76900;SDS011;65859;43.020;25.096;2024-01-27T07:26:37;16.60;;;10.00;;
76900;SDS011;65859;43.020;25.096;2024-01-27T07:29:24;18.60;;;10.57;;
76900;SDS011;65859;43.020;25.096;2024-01-27T07:32:09;12.18;;;9.07;;
76900;SDS011;65859;43.020;25.096;2024-01-27T07:34:57;15.07;;;9.30;;
76900;SDS011;65859;43.020;25.096;2024-01-27T07:37:41;20.95;;;12.75;;
76900;SDS011;65859;43.020;25.096;2024-01-27T07:40:26;18.65;;;10.13;;
76900;SDS011;65859;43.020;25.096;2024-01-27T07:43:12;27.77;;;13.82;;
76900;SDS011;65859;43.020;25.096;2024-01-27T07:45:56;21.67;;;13.52;;
76900;SDS011;65859;43.020;25.096;2024-01-27T07:48:41;22.10;;;11.57;;
76900;SDS011;65859;43.020;25.096;2024-01-27T07:51:26;23.05;;;12.40;;
76900;SDS011;65859;43.020;25.096;2024-01-27T07:54:11;18.60;;;10.50;;
76900;SDS011;65859;43.020;25.096;2024-01-27T07:56:56;49.78;;;25.05;;
76900;SDS011;65859;43.020;25.096;2024-01-27T07:59:42;17.88;;;10.02;;
76900;SDS011;65859;43.020;25.096;2024-01-27T08:02:27;19.77;;;11.38;;
76900;SDS011;65859;43.020;25.096;2024-01-27T08:05:12;18.55;;;9.82;;
76900;SDS011;65859;43.020;25.096;2024-01-27T08:07:56;11.65;;;6.03;;
76900;SDS011;65859;43.020;25.096;2024-01-27T08:10:41;30.10;;;19.65;;
76900;SDS011;65859;43.020;25.096;2024-01-27T08:13:27;33.58;;;16.48;;
76900;SDS011;65859;43.020;25.096;2024-01-27T08:16:12;13.88;;;9.35;;
76900;SDS011;65859;43.020;25.096;2024-01-27T08:18:57;40.33;;;18.92;;
76900;SDS011;65859;43.020;25.096;2024-01-27T08:21:43;29.50;;;17.60;;
76900;SDS011;65859;43.020;25.096;2024-01-27T08:24:28;33.97;;;21.00;;
76900;SDS011;65859;43.020;25.096;2024-01-27T08:27:13;19.95;;;12.35;;
76900;SDS011;65859;43.020;25.096;2024-01-27T08:29:59;30.20;;;21.25;;
76900;SDS011;65859;43.020;25.096;2024-01-27T08:32:44;17.13;;;10.68;;
76900;SDS011;65859;43.020;25.096;2024-01-27T08:35:29;22.65;;;14.10;;
76900;SDS011;65859;43.020;25.096;2024-01-27T08:38:14;11.43;;;7.45;;
76900;SDS011;65859;43.020;25.096;2024-01-27T08:40:59;6.35;;;3.35;;
76900;SDS011;65859;43.020;25.096;2024-01-27T08:43:44;5.47;;;3.33;;
76900;SDS011;65859;43.020;25.096;2024-01-27T08:46:28;7.80;;;5.22;;
76900;SDS011;65859;43.020;25.096;2024-01-27T08:49:13;5.57;;;3.25;;
76900;SDS011;65859;43.020;25.096;2024-01-27T08:51:58;5.15;;;2.75;;
76900;SDS011;65859;43.020;25.096;2024-01-27T08:54:42;6.03;;;3.17;;
76900;SDS011;65859;43.020;25.096;2024-01-27T08:57:27;5.20;;;3.55;;
76900;SDS011;65859;43.020;25.096;2024-01-27T09:00:13;4.45;;;2.70;;
76900;SDS011;65859;43.020;25.096;2024-01-27T09:02:59;4.03;;;3.17;;
76900;SDS011;65859;43.020;25.096;2024-01-27T09:05:45;3.58;;;2.78;;
76900;SDS011;65859;43.020;25.096;2024-01-27T09:08:30;5.75;;;2.90;;
76900;SDS011;65859;43.020;25.096;2024-01-27T09:11:15;4.25;;;2.90;;
76900;SDS011;65859;43.020;25.096;2024-01-27T09:14:00;6.43;;;3.60;;
76900;SDS011;65859;43.020;25.096;2024-01-27T09:16:45;4.65;;;3.38;;
76900;SDS011;65859;43.020;25.096;2024-01-27T09:19:31;6.65;;;4.53;;
76900;SDS011;65859;43.020;25.096;2024-01-27T09:22:16;32.22;;;16.40;;
76900;SDS011;65859;43.020;25.096;2024-01-27T09:25:00;3.72;;;3.30;;
76900;SDS011;65859;43.020;25.096;2024-01-27T09:27:46;5.22;;;3.13;;
76900;SDS011;65859;43.020;25.096;2024-01-27T09:30:32;3.33;;;2.90;;
76900;SDS011;65859;43.020;25.096;2024-01-27T09:33:16;9.07;;;3.50;;
76900;SDS011;65859;43.020;25.096;2024-01-27T09:36:03;5.65;;;4.03;;
76900;SDS011;65859;43.020;25.096;2024-01-27T09:38:48;8.80;;;6.53;;
76900;SDS011;65859;43.020;25.096;2024-01-27T09:41:33;5.55;;;2.95;;
76900;SDS011;65859;43.020;25.096;2024-01-27T09:44:18;4.72;;;2.50;;
76900;SDS011;65859;43.020;25.096;2024-01-27T09:47:03;2.83;;;2.20;;
76900;SDS011;65859;43.020;25.096;2024-01-27T09:49:48;4.63;;;3.10;;
76900;SDS011;65859;43.020;25.096;2024-01-27T09:52:34;3.05;;;2.33;;
76900;SDS011;65859;43.020;25.096;2024-01-27T09:55:19;4.38;;;2.75;;
76900;SDS011;65859;43.020;25.096;2024-01-27T09:58:04;5.65;;;3.47;;
76900;SDS011;65859;43.020;25.096;2024-01-27T10:00:51;4.53;;;2.75;;
76900;SDS011;65859;43.020;25.096;2024-01-27T10:03:38;3.65;;;3.00;;
76900;SDS011;65859;43.020;25.096;2024-01-27T10:06:25;9.70;;;6.30;;
76900;SDS011;65859;43.020;25.096;2024-01-27T10:09:10;5.88;;;3.33;;
76900;SDS011;65859;43.020;25.096;2024-01-27T10:11:54;7.10;;;4.88;;
76900;SDS011;65859;43.020;25.096;2024-01-27T10:14:41;7.35;;;5.28;;
76900;SDS011;65859;43.020;25.096;2024-01-27T10:17:28;3.70;;;2.63;;
76900;SDS011;65859;43.020;25.096;2024-01-27T10:20:18;6.25;;;3.58;;
76900;SDS011;65859;43.020;25.096;2024-01-27T10:23:10;3.42;;;2.92;;
76900;SDS011;65859;43.020;25.096;2024-01-27T10:25:55;8.02;;;3.28;;
76900;SDS011;65859;43.020;25.096;2024-01-27T10:28:40;4.90;;;3.05;;
76900;SDS011;65859;43.020;25.096;2024-01-27T10:31:27;6.35;;;3.63;;
76900;SDS011;65859;43.020;25.096;2024-01-27T10:34:13;12.77;;;7.68;;
76900;SDS011;65859;43.020;25.096;2024-01-27T10:37:03;7.03;;;4.30;;
76900;SDS011;65859;43.020;25.096;2024-01-27T10:39:48;5.82;;;3.33;;
76900;SDS011;65859;43.020;25.096;2024-01-27T10:42:34;3.58;;;2.70;;
76900;SDS011;65859;43.020;25.096;2024-01-27T10:45:20;5.55;;;4.45;;
76900;SDS011;65859;43.020;25.096;2024-01-27T10:48:06;6.15;;;4.55;;
76900;SDS011;65859;43.020;25.096;2024-01-27T10:50:54;4.75;;;3.97;;
76900;SDS011;65859;43.020;25.096;2024-01-27T10:53:40;6.45;;;5.18;;
76900;SDS011;65859;43.020;25.096;2024-01-27T10:56:31;5.65;;;4.00;;
76900;SDS011;65859;43.020;25.096;2024-01-27T10:59:19;4.22;;;3.80;;
76900;SDS011;65859;43.020;25.096;2024-01-27T11:02:08;7.75;;;6.53;;
76900;SDS011;65859;43.020;25.096;2024-01-27T11:04:58;4.80;;;3.65;;
76900;SDS011;65859;43.020;25.096;2024-01-27T11:07:47;5.53;;;3.90;;
76900;SDS011;65859;43.020;25.096;2024-01-27T11:10:32;6.28;;;4.05;;
76900;SDS011;65859;43.020;25.096;2024-01-27T11:13:21;6.18;;;3.67;;
76900;SDS011;65859;43.020;25.096;2024-01-27T11:16:17;4.80;;;3.75;;
76900;SDS011;65859;43.020;25.096;2024-01-27T11:19:02;4.72;;;4.05;;
76900;SDS011;65859;43.020;25.096;2024-01-27T11:22:16;4.85;;;3.95;;
76900;SDS011;65859;43.020;25.096;2024-01-27T11:28:10;5.22;;;3.50;;
76900;SDS011;65859;43.020;25.096;2024-01-27T11:31:03;4.43;;;3.50;;
76900;SDS011;65859;43.020;25.096;2024-01-27T11:33:50;8.90;;;5.70;;
76900;SDS011;65859;43.020;25.096;2024-01-27T11:36:38;4.85;;;3.03;;
76900;SDS011;65859;43.020;25.096;2024-01-27T11:39:29;5.25;;;2.90;;
76900;SDS011;65859;43.020;25.096;2024-01-27T11:42:14;7.05;;;3.25;;
76900;SDS011;65859;43.020;25.096;2024-01-27T11:45:00;4.50;;;3.67;;
76900;SDS011;65859;43.020;25.096;2024-01-27T11:47:45;4.90;;;3.58;;
76900;SDS011;65859;43.020;25.096;2024-01-27T11:50:30;4.38;;;2.47;;
76900;SDS011;65859;43.020;25.096;2024-01-27T11:53:14;3.72;;;2.60;;
76900;SDS011;65859;43.020;25.096;2024-01-27T11:55:59;8.48;;;4.90;;
76900;SDS011;65859;43.020;25.096;2024-01-27T11:58:46;3.10;;;2.28;;
76900;SDS011;65859;43.020;25.096;2024-01-27T12:01:32;3.70;;;2.30;;
76900;SDS011;65859;43.020;25.096;2024-01-27T12:04:18;3.17;;;2.47;;
76900;SDS011;65859;43.020;25.096;2024-01-27T12:07:04;12.25;;;8.48;;
76900;SDS011;65859;43.020;25.096;2024-01-27T12:09:50;3.63;;;2.95;;
76900;SDS011;65859;43.020;25.096;2024-01-27T12:12:35;3.17;;;2.47;;
76900;SDS011;65859;43.020;25.096;2024-01-27T12:15:21;9.43;;;2.45;;
76900;SDS011;65859;43.020;25.096;2024-01-27T12:18:05;3.40;;;1.80;;
76900;SDS011;65859;43.020;25.096;2024-01-27T12:20:54;2.70;;;2.30;;
76900;SDS011;65859;43.020;25.096;2024-01-27T12:23:53;4.63;;;2.40;;
76900;SDS011;65859;43.020;25.096;2024-01-27T12:26:39;1.70;;;1.58;;
76900;SDS011;65859;43.020;25.096;2024-01-27T12:29:25;3.25;;;1.80;;
76900;SDS011;65859;43.020;25.096;2024-01-27T12:32:12;4.25;;;2.85;;
76900;SDS011;65859;43.020;25.096;2024-01-27T12:35:03;4.80;;;2.10;;
76900;SDS011;65859;43.020;25.096;2024-01-27T12:37:49;1.60;;;1.50;;
76900;SDS011;65859;43.020;25.096;2024-01-27T12:40:35;2.00;;;1.83;;
76900;SDS011;65859;43.020;25.096;2024-01-27T12:43:21;4.75;;;2.05;;
76900;SDS011;65859;43.020;25.096;2024-01-27T12:46:06;2.42;;;2.22;;
76900;SDS011;65859;43.020;25.096;2024-01-27T12:48:51;4.72;;;1.60;;
76900;SDS011;65859;43.020;25.096;2024-01-27T12:51:36;2.35;;;1.80;;
76900;SDS011;65859;43.020;25.096;2024-01-27T12:54:22;1.73;;;1.35;;
76900;SDS011;65859;43.020;25.096;2024-01-27T12:57:07;3.70;;;2.13;;
76900;SDS011;65859;43.020;25.096;2024-01-27T12:59:52;5.65;;;3.25;;
76900;SDS011;65859;43.020;25.096;2024-01-27T13:02:37;2.42;;;1.92;;
76900;SDS011;65859;43.020;25.096;2024-01-27T13:05:24;3.85;;;1.60;;
76900;SDS011;65859;43.020;25.096;2024-01-27T13:08:09;3.72;;;1.50;;
76900;SDS011;65859;43.020;25.096;2024-01-27T13:10:54;3.38;;;1.55;;
76900;SDS011;65859;43.020;25.096;2024-01-27T13:13:40;6.55;;;2.35;;
76900;SDS011;65859;43.020;25.096;2024-01-27T13:16:25;5.30;;;2.08;;
76900;SDS011;65859;43.020;25.096;2024-01-27T13:19:10;2.40;;;2.05;;
76900;SDS011;65859;43.020;25.096;2024-01-27T13:21:54;4.90;;;2.42;;
76900;SDS011;65859;43.020;25.096;2024-01-27T13:24:39;3.38;;;1.65;;
76900;SDS011;65859;43.020;25.096;2024-01-27T13:27:24;3.95;;;1.90;;
76900;SDS011;65859;43.020;25.096;2024-01-27T13:30:09;3.70;;;2.00;;
76900;SDS011;65859;43.020;25.096;2024-01-27T13:32:54;6.20;;;4.10;;
76900;SDS011;65859;43.020;25.096;2024-01-27T13:35:40;39.38;;;22.67;;
76900;SDS011;65859;43.020;25.096;2024-01-27T13:38:30;24.33;;;14.02;;
76900;SDS011;65859;43.020;25.096;2024-01-27T13:41:15;32.38;;;17.27;;
76900;SDS011;65859;43.020;25.096;2024-01-27T13:44:01;2.80;;;2.08;;
76900;SDS011;65859;43.020;25.096;2024-01-27T13:46:45;9.70;;;5.82;;
76900;SDS011;65859;43.020;25.096;2024-01-27T13:49:31;6.68;;;2.60;;
76900;SDS011;65859;43.020;25.096;2024-01-27T13:52:16;5.53;;;3.00;;
76900;SDS011;65859;43.020;25.096;2024-01-27T13:55:01;6.78;;;4.72;;
76900;SDS011;65859;43.020;25.096;2024-01-27T13:57:46;2.42;;;2.20;;
76900;SDS011;65859;43.020;25.096;2024-01-27T14:00:31;5.22;;;2.70;;
76900;SDS011;65859;43.020;25.096;2024-01-27T14:03:17;2.63;;;2.30;;
76900;SDS011;65859;43.020;25.096;2024-01-27T14:06:04;2.60;;;2.05;;
76900;SDS011;65859;43.020;25.096;2024-01-27T14:08:49;2.83;;;1.90;;
76900;SDS011;65859;43.020;25.096;2024-01-27T14:11:35;9.52;;;4.78;;
76900;SDS011;65859;43.020;25.096;2024-01-27T14:14:19;4.05;;;2.60;;
76900;SDS011;65859;43.020;25.096;2024-01-27T14:17:04;5.18;;;3.03;;
76900;SDS011;65859;43.020;25.096;2024-01-27T14:19:48;5.70;;;3.70;;
76900;SDS011;65859;43.020;25.096;2024-01-27T14:22:34;5.35;;;3.63;;
76900;SDS011;65859;43.020;25.096;2024-01-27T14:25:18;8.65;;;6.20;;
76900;SDS011;65859;43.020;25.096;2024-01-27T14:28:03;3.83;;;3.40;;
76900;SDS011;65859;43.020;25.096;2024-01-27T14:30:51;6.25;;;4.35;;
76900;SDS011;65859;43.020;25.096;2024-01-27T14:33:36;10.63;;;6.55;;
76900;SDS011;65859;43.020;25.096;2024-01-27T14:36:23;9.45;;;7.05;;
76900;SDS011;65859;43.020;25.096;2024-01-27T14:39:09;8.05;;;5.78;;
76900;SDS011;65859;43.020;25.096;2024-01-27T14:41:54;6.55;;;5.10;;
76900;SDS011;65859;43.020;25.096;2024-01-27T14:44:39;5.53;;;4.43;;
76900;SDS011;65859;43.020;25.096;2024-01-27T14:47:24;6.32;;;5.00;;
76900;SDS011;65859;43.020;25.096;2024-01-27T14:50:08;5.95;;;3.90;;
76900;SDS011;65859;43.020;25.096;2024-01-27T14:52:53;4.68;;;3.72;;
76900;SDS011;65859;43.020;25.096;2024-01-27T14:55:38;15.40;;;5.47;;
76900;SDS011;65859;43.020;25.096;2024-01-27T14:58:23;3.50;;;3.20;;
76900;SDS011;65859;43.020;25.096;2024-01-27T15:01:08;5.68;;;4.45;;
76900;SDS011;65859;43.020;25.096;2024-01-27T15:03:52;6.53;;;4.68;;
76900;SDS011;65859;43.020;25.096;2024-01-27T15:06:39;4.30;;;3.33;;
76900;SDS011;65859;43.020;25.096;2024-01-27T15:09:24;4.22;;;3.40;;
76900;SDS011;65859;43.020;25.096;2024-01-27T15:12:09;5.53;;;3.95;;
76900;SDS011;65859;43.020;25.096;2024-01-27T15:14:54;3.40;;;3.10;;
76900;SDS011;65859;43.020;25.096;2024-01-27T15:17:40;4.60;;;3.17;;
76900;SDS011;65859;43.020;25.096;2024-01-27T15:20:25;3.20;;;2.95;;
76900;SDS011;65859;43.020;25.096;2024-01-27T15:23:10;4.90;;;2.95;;
76900;SDS011;65859;43.020;25.096;2024-01-27T15:25:55;5.18;;;2.78;;
76900;SDS011;65859;43.020;25.096;2024-01-27T15:28:41;5.25;;;3.17;;
76900;SDS011;65859;43.020;25.096;2024-01-27T15:31:26;4.20;;;3.13;;
76900;SDS011;65859;43.020;25.096;2024-01-27T15:34:11;5.97;;;4.05;;
76900;SDS011;65859;43.020;25.096;2024-01-27T15:36:58;5.53;;;3.03;;
76900;SDS011;65859;43.020;25.096;2024-01-27T15:39:44;4.63;;;2.83;;
76900;SDS011;65859;43.020;25.096;2024-01-27T15:42:29;7.03;;;4.55;;
76900;SDS011;65859;43.020;25.096;2024-01-27T15:45:15;5.55;;;3.70;;
76900;SDS011;65859;43.020;25.096;2024-01-27T15:48:00;6.05;;;4.30;;
76900;SDS011;65859;43.020;25.096;2024-01-27T15:50:45;9.05;;;5.40;;
76900;SDS011;65859;43.020;25.096;2024-01-27T15:53:31;6.70;;;4.07;;
76900;SDS011;65859;43.020;25.096;2024-01-27T15:56:16;10.50;;;6.65;;
76900;SDS011;65859;43.020;25.096;2024-01-27T15:59:01;4.55;;;2.80;;
76900;SDS011;65859;43.020;25.096;2024-01-27T16:01:46;6.35;;;4.28;;
76900;SDS011;65859;43.020;25.096;2024-01-27T16:04:31;4.30;;;2.70;;
76900;SDS011;65859;43.020;25.096;2024-01-27T16:07:19;3.95;;;2.63;;
76900;SDS011;65859;43.020;25.096;2024-01-27T16:10:07;9.60;;;2.97;;
76900;SDS011;65859;43.020;25.096;2024-01-27T16:12:52;6.55;;;2.17;;
76900;SDS011;65859;43.020;25.096;2024-01-27T16:15:37;5.68;;;2.28;;